Terminal Aerodrome Forecast
Issued by NWS Sioux Falls, SD

Home | Current Version | Previous Version | Graphics & Text | Print | Product List | Glossary On
Versions: 1 2 3 4 5 6 7 8 9 10 11 12 13 14
002
FTUS43 KFSD 281720
TAFHON
TAF
KHON 281720Z 2818/2918 05013KT P6SM BKN250
     FM290300 04008KT P6SM BKN200
     FM290700 03004KT P6SM SCT250
     FM291600 03008KT P6SM SCT250=

USA.gov is the U.S. government's official web portal to all federal, state and local government web resources and services.